sensor_id;sensor_type;location;lat;lon;timestamp;temperature;humidity
11304;DHT22;5707;49.588;12.148;2022-08-19T00:01:18;18.40;99.90
11304;DHT22;5707;49.588;12.148;2022-08-19T00:03:59;18.40;99.90
11304;DHT22;5707;49.588;12.148;2022-08-19T00:06:41;18.40;99.90
11304;DHT22;5707;49.588;12.148;2022-08-19T00:09:22;18.50;99.90
11304;DHT22;5707;49.588;12.148;2022-08-19T00:12:03;18.60;99.90
11304;DHT22;5707;49.588;12.148;2022-08-19T00:14:44;18.60;99.90
11304;DHT22;5707;49.588;12.148;2022-08-19T00:17:24;18.60;99.90
11304;DHT22;5707;49.588;12.148;2022-08-19T00:20:04;18.60;99.90
11304;DHT22;5707;49.588;12.148;2022-08-19T00:22:45;18.50;99.90
11304;DHT22;5707;49.588;12.148;2022-08-19T00:25:25;18.60;99.90
11304;DHT22;5707;49.588;12.148;2022-08-19T00:28:05;18.50;99.90
11304;DHT22;5707;49.588;12.148;2022-08-19T00:30:45;18.40;99.90
11304;DHT22;5707;49.588;12.148;2022-08-19T00:33:24;18.40;99.90
11304;DHT22;5707;49.588;12.148;2022-08-19T00:36:05;18.30;99.90
11304;DHT22;5707;49.588;12.148;2022-08-19T00:38:46;18.30;99.90
11304;DHT22;5707;49.588;12.148;2022-08-19T00:41:25;18.20;99.90
11304;DHT22;5707;49.588;12.148;2022-08-19T00:44:06;18.20;99.90
11304;DHT22;5707;49.588;12.148;2022-08-19T00:46:47;18.10;99.90
11304;DHT22;5707;49.588;12.148;2022-08-19T00:49:29;18.00;99.90
11304;DHT22;5707;49.588;12.148;2022-08-19T00:52:13;17.80;99.90
11304;DHT22;5707;49.588;12.148;2022-08-19T00:54:54;17.80;99.90
11304;DHT22;5707;49.588;12.148;2022-08-19T00:57:36;17.80;99.90
11304;DHT22;5707;49.588;12.148;2022-08-19T01:00:18;17.80;99.90
11304;DHT22;5707;49.588;12.148;2022-08-19T01:03:02;17.80;99.90
11304;DHT22;5707;49.588;12.148;2022-08-19T01:05:42;17.90;99.90
11304;DHT22;5707;49.588;12.148;2022-08-19T01:08:23;18.00;99.90
11304;DHT22;5707;49.588;12.148;2022-08-19T01:11:03;18.00;99.90
11304;DHT22;5707;49.588;12.148;2022-08-19T01:13:46;18.00;99.90
11304;DHT22;5707;49.588;12.148;2022-08-19T01:16:26;18.00;99.90
11304;DHT22;5707;49.588;12.148;2022-08-19T01:19:10;18.10;99.90
11304;DHT22;5707;49.588;12.148;2022-08-19T01:21:52;18.10;99.90
11304;DHT22;5707;49.588;12.148;2022-08-19T01:24:35;18.00;99.90
11304;DHT22;5707;49.588;12.148;2022-08-19T01:27:15;18.10;99.90
11304;DHT22;5707;49.588;12.148;2022-08-19T01:29:54;18.10;99.90
11304;DHT22;5707;49.588;12.148;2022-08-19T01:32:34;18.10;99.90
11304;DHT22;5707;49.588;12.148;2022-08-19T01:35:14;18.20;99.90
11304;DHT22;5707;49.588;12.148;2022-08-19T01:37:58;18.20;99.90
11304;DHT22;5707;49.588;12.148;2022-08-19T01:40:39;18.30;99.90
11304;DHT22;5707;49.588;12.148;2022-08-19T01:43:20;18.30;99.90
11304;DHT22;5707;49.588;12.148;2022-08-19T01:46:00;18.30;99.90
11304;DHT22;5707;49.588;12.148;2022-08-19T01:48:40;18.40;99.90
11304;DHT22;5707;49.588;12.148;2022-08-19T01:51:21;18.40;99.90
11304;DHT22;5707;49.588;12.148;2022-08-19T01:54:01;18.40;99.90
11304;DHT22;5707;49.588;12.148;2022-08-19T01:56:41;18.40;99.90
11304;DHT22;5707;49.588;12.148;2022-08-19T01:59:21;18.40;99.90
11304;DHT22;5707;49.588;12.148;2022-08-19T02:02:02;18.40;99.90
11304;DHT22;5707;49.588;12.148;2022-08-19T02:04:45;18.40;99.90
11304;DHT22;5707;49.588;12.148;2022-08-19T02:07:26;18.40;99.90
11304;DHT22;5707;49.588;12.148;2022-08-19T02:10:10;18.40;99.90
11304;DHT22;5707;49.588;12.148;2022-08-19T02:12:51;18.40;99.90
11304;DHT22;5707;49.588;12.148;2022-08-19T02:15:31;18.40;99.90
11304;DHT22;5707;49.588;12.148;2022-08-19T02:18:10;18.40;99.90
11304;DHT22;5707;49.588;12.148;2022-08-19T02:20:50;18.40;99.90
11304;DHT22;5707;49.588;12.148;2022-08-19T02:23:30;18.40;99.90
11304;DHT22;5707;49.588;12.148;2022-08-19T02:26:10;18.40;99.90
11304;DHT22;5707;49.588;12.148;2022-08-19T02:28:51;18.40;99.90
11304;DHT22;5707;49.588;12.148;2022-08-19T02:31:31;18.40;99.90
11304;DHT22;5707;49.588;12.148;2022-08-19T02:34:11;18.40;99.90
11304;DHT22;5707;49.588;12.148;2022-08-19T02:36:51;18.30;99.90
11304;DHT22;5707;49.588;12.148;2022-08-19T02:39:31;18.30;99.90
11304;DHT22;5707;49.588;12.148;2022-08-19T02:42:11;18.30;99.90
11304;DHT22;5707;49.588;12.148;2022-08-19T02:44:50;18.30;99.90
11304;DHT22;5707;49.588;12.148;2022-08-19T02:47:30;18.30;99.90
11304;DHT22;5707;49.588;12.148;2022-08-19T02:50:10;18.40;99.90
11304;DHT22;5707;49.588;12.148;2022-08-19T02:52:52;18.30;99.90
11304;DHT22;5707;49.588;12.148;2022-08-19T02:55:31;18.30;99.90
11304;DHT22;5707;49.588;12.148;2022-08-19T02:58:11;18.30;99.90
11304;DHT22;5707;49.588;12.148;2022-08-19T03:00:52;18.40;99.90
11304;DHT22;5707;49.588;12.148;2022-08-19T03:03:32;18.40;99.90
11304;DHT22;5707;49.588;12.148;2022-08-19T03:06:13;18.30;99.90
11304;DHT22;5707;49.588;12.148;2022-08-19T03:08:54;18.40;99.90
11304;DHT22;5707;49.588;12.148;2022-08-19T03:11:35;18.40;99.90
11304;DHT22;5707;49.588;12.148;2022-08-19T03:14:15;18.40;99.90
11304;DHT22;5707;49.588;12.148;2022-08-19T03:16:56;18.40;99.90
11304;DHT22;5707;49.588;12.148;2022-08-19T03:19:36;18.40;99.90
11304;DHT22;5707;49.588;12.148;2022-08-19T03:22:16;18.40;99.90
11304;DHT22;5707;49.588;12.148;2022-08-19T03:24:56;18.30;99.90
11304;DHT22;5707;49.588;12.148;2022-08-19T03:27:37;18.40;99.90
11304;DHT22;5707;49.588;12.148;2022-08-19T03:30:17;18.30;99.90
11304;DHT22;5707;49.588;12.148;2022-08-19T03:32:57;18.30;99.90
11304;DHT22;5707;49.588;12.148;2022-08-19T03:35:37;18.30;99.90
11304;DHT22;5707;49.588;12.148;2022-08-19T03:38:17;18.30;99.90
11304;DHT22;5707;49.588;12.148;2022-08-19T03:40:56;18.30;99.90
11304;DHT22;5707;49.588;12.148;2022-08-19T03:43:36;18.30;99.90
11304;DHT22;5707;49.588;12.148;2022-08-19T03:46:17;18.30;99.90
11304;DHT22;5707;49.588;12.148;2022-08-19T03:49:00;18.30;99.90
11304;DHT22;5707;49.588;12.148;2022-08-19T03:51:42;18.30;99.90
11304;DHT22;5707;49.588;12.148;2022-08-19T03:54:23;18.20;99.90
11304;DHT22;5707;49.588;12.148;2022-08-19T03:57:03;18.20;99.90
11304;DHT22;5707;49.588;12.148;2022-08-19T03:59:43;18.20;99.90
11304;DHT22;5707;49.588;12.148;2022-08-19T04:02:23;18.20;99.90
11304;DHT22;5707;49.588;12.148;2022-08-19T04:05:03;18.20;99.90
11304;DHT22;5707;49.588;12.148;2022-08-19T04:07:43;18.30;99.90
11304;DHT22;5707;49.588;12.148;2022-08-19T04:10:22;18.30;99.90
11304;DHT22;5707;49.588;12.148;2022-08-19T04:13:02;18.30;99.90
11304;DHT22;5707;49.588;12.148;2022-08-19T04:15:44;18.30;99.90
11304;DHT22;5707;49.588;12.148;2022-08-19T04:18:25;18.30;99.90
11304;DHT22;5707;49.588;12.148;2022-08-19T04:21:08;18.40;99.90
11304;DHT22;5707;49.588;12.148;2022-08-19T04:23:55;18.40;99.90
11304;DHT22;5707;49.588;12.148;2022-08-19T04:26:36;18.40;99.90
11304;DHT22;5707;49.588;12.148;2022-08-19T04:29:18;18.40;99.90
11304;DHT22;5707;49.588;12.148;2022-08-19T04:32:00;18.50;99.90
11304;DHT22;5707;49.588;12.148;2022-08-19T04:34:40;18.40;99.90
11304;DHT22;5707;49.588;12.148;2022-08-19T04:37:22;18.40;99.90
11304;DHT22;5707;49.588;12.148;2022-08-19T04:40:05;18.50;99.90
11304;DHT22;5707;49.588;12.148;2022-08-19T04:43:02;18.50;99.90
11304;DHT22;5707;49.588;12.148;2022-08-19T04:45:42;18.50;99.90
11304;DHT22;5707;49.588;12.148;2022-08-19T04:48:23;18.50;99.90
11304;DHT22;5707;49.588;12.148;2022-08-19T04:51:07;18.60;99.90
11304;DHT22;5707;49.588;12.148;2022-08-19T04:53:48;18.60;99.90
11304;DHT22;5707;49.588;12.148;2022-08-19T04:56:28;18.60;99.90
11304;DHT22;5707;49.588;12.148;2022-08-19T04:59:07;18.60;99.90
11304;DHT22;5707;49.588;12.148;2022-08-19T05:01:49;18.60;99.90
11304;DHT22;5707;49.588;12.148;2022-08-19T05:04:29;18.70;99.90
11304;DHT22;5707;49.588;12.148;2022-08-19T05:07:10;18.70;99.90
11304;DHT22;5707;49.588;12.148;2022-08-19T05:09:50;18.70;99.90
11304;DHT22;5707;49.588;12.148;2022-08-19T05:12:30;18.80;99.90
11304;DHT22;5707;49.588;12.148;2022-08-19T05:15:10;18.80;99.90
11304;DHT22;5707;49.588;12.148;2022-08-19T05:17:51;18.80;99.90
11304;DHT22;5707;49.588;12.148;2022-08-19T05:20:48;18.90;99.90
11304;DHT22;5707;49.588;12.148;2022-08-19T05:23:46;19.10;99.90
11304;DHT22;5707;49.588;12.148;2022-08-19T05:26:26;19.20;99.90
11304;DHT22;5707;49.588;12.148;2022-08-19T05:29:06;19.30;99.90
11304;DHT22;5707;49.588;12.148;2022-08-19T05:31:47;19.30;99.90
11304;DHT22;5707;49.588;12.148;2022-08-19T05:34:28;19.40;99.90
11304;DHT22;5707;49.588;12.148;2022-08-19T05:37:10;19.40;99.90
11304;DHT22;5707;49.588;12.148;2022-08-19T05:39:50;19.60;99.90
11304;DHT22;5707;49.588;12.148;2022-08-19T05:42:29;19.90;99.90
11304;DHT22;5707;49.588;12.148;2022-08-19T05:45:10;20.40;99.90
11304;DHT22;5707;49.588;12.148;2022-08-19T05:47:51;20.90;99.90
11304;DHT22;5707;49.588;12.148;2022-08-19T05:50:31;21.00;99.90
11304;DHT22;5707;49.588;12.148;2022-08-19T05:53:10;20.90;99.90
11304;DHT22;5707;49.588;12.148;2022-08-19T05:55:50;20.90;99.90
11304;DHT22;5707;49.588;12.148;2022-08-19T05:58:30;20.90;99.90
11304;DHT22;5707;49.588;12.148;2022-08-19T06:01:12;21.00;99.90
11304;DHT22;5707;49.588;12.148;2022-08-19T06:03:53;21.10;99.90
11304;DHT22;5707;49.588;12.148;2022-08-19T06:06:33;21.10;99.90
11304;DHT22;5707;49.588;12.148;2022-08-19T06:09:14;21.20;99.90
11304;DHT22;5707;49.588;12.148;2022-08-19T06:11:55;21.10;99.90
11304;DHT22;5707;49.588;12.148;2022-08-19T06:14:39;21.00;99.90
11304;DHT22;5707;49.588;12.148;2022-08-19T06:17:20;21.10;99.90
11304;DHT22;5707;49.588;12.148;2022-08-19T06:20:04;21.50;99.90
11304;DHT22;5707;49.588;12.148;2022-08-19T06:22:45;22.00;99.90
11304;DHT22;5707;49.588;12.148;2022-08-19T06:25:26;22.20;99.90
11304;DHT22;5707;49.588;12.148;2022-08-19T06:28:06;22.40;99.90
11304;DHT22;5707;49.588;12.148;2022-08-19T06:30:46;22.50;99.90
11304;DHT22;5707;49.588;12.148;2022-08-19T06:33:25;22.20;99.90
11304;DHT22;5707;49.588;12.148;2022-08-19T06:36:05;22.00;99.90
11304;DHT22;5707;49.588;12.148;2022-08-19T06:38:45;21.90;99.90
11304;DHT22;5707;49.588;12.148;2022-08-19T06:41:25;21.90;99.90
11304;DHT22;5707;49.588;12.148;2022-08-19T06:44:05;22.10;99.90
11304;DHT22;5707;49.588;12.148;2022-08-19T06:46:45;22.20;99.90
11304;DHT22;5707;49.588;12.148;2022-08-19T06:49:24;22.30;99.90
11304;DHT22;5707;49.588;12.148;2022-08-19T06:52:06;22.20;99.90
11304;DHT22;5707;49.588;12.148;2022-08-19T06:54:46;22.20;99.90
11304;DHT22;5707;49.588;12.148;2022-08-19T06:57:26;22.20;99.90
11304;DHT22;5707;49.588;12.148;2022-08-19T07:00:10;22.20;99.90
11304;DHT22;5707;49.588;12.148;2022-08-19T07:02:52;22.20;99.90
11304;DHT22;5707;49.588;12.148;2022-08-19T07:05:31;22.20;99.90
11304;DHT22;5707;49.588;12.148;2022-08-19T07:08:13;22.20;99.90
11304;DHT22;5707;49.588;12.148;2022-08-19T07:10:54;22.30;99.90
11304;DHT22;5707;49.588;12.148;2022-08-19T07:13:34;22.30;99.90
11304;DHT22;5707;49.588;12.148;2022-08-19T07:16:16;22.40;99.90
11304;DHT22;5707;49.588;12.148;2022-08-19T07:18:57;22.30;99.90
11304;DHT22;5707;49.588;12.148;2022-08-19T07:21:38;22.10;99.90
11304;DHT22;5707;49.588;12.148;2022-08-19T07:24:19;21.90;99.90
11304;DHT22;5707;49.588;12.148;2022-08-19T07:27:00;21.80;99.90
11304;DHT22;5707;49.588;12.148;2022-08-19T07:29:41;21.50;99.90
11304;DHT22;5707;49.588;12.148;2022-08-19T07:32:21;21.20;99.90
11304;DHT22;5707;49.588;12.148;2022-08-19T07:35:01;21.10;99.90
11304;DHT22;5707;49.588;12.148;2022-08-19T07:37:42;21.00;99.90
11304;DHT22;5707;49.588;12.148;2022-08-19T07:40:22;20.90;99.90
11304;DHT22;5707;49.588;12.148;2022-08-19T07:43:03;20.80;99.90
11304;DHT22;5707;49.588;12.148;2022-08-19T07:45:43;20.80;99.90
11304;DHT22;5707;49.588;12.148;2022-08-19T07:48:23;20.80;99.90
11304;DHT22;5707;49.588;12.148;2022-08-19T07:51:07;20.80;99.90
11304;DHT22;5707;49.588;12.148;2022-08-19T07:53:48;21.00;99.90
11304;DHT22;5707;49.588;12.148;2022-08-19T07:56:29;21.20;99.90
11304;DHT22;5707;49.588;12.148;2022-08-19T07:59:09;21.30;99.90
11304;DHT22;5707;49.588;12.148;2022-08-19T08:01:49;21.50;99.90
11304;DHT22;5707;49.588;12.148;2022-08-19T08:04:30;21.60;99.90
11304;DHT22;5707;49.588;12.148;2022-08-19T08:07:27;21.80;99.90
11304;DHT22;5707;49.588;12.148;2022-08-19T08:10:25;22.00;99.90
11304;DHT22;5707;49.588;12.148;2022-08-19T08:13:05;22.20;99.90
11304;DHT22;5707;49.588;12.148;2022-08-19T08:15:45;22.40;99.90
11304;DHT22;5707;49.588;12.148;2022-08-19T08:18:24;22.60;99.90
11304;DHT22;5707;49.588;12.148;2022-08-19T08:21:04;22.90;99.90
11304;DHT22;5707;49.588;12.148;2022-08-19T08:23:44;22.90;99.90
11304;DHT22;5707;49.588;12.148;2022-08-19T08:26:26;23.00;99.90
11304;DHT22;5707;49.588;12.148;2022-08-19T08:29:09;22.90;99.90
11304;DHT22;5707;49.588;12.148;2022-08-19T08:31:52;22.90;99.90
11304;DHT22;5707;49.588;12.148;2022-08-19T08:34:33;23.10;99.90
11304;DHT22;5707;49.588;12.148;2022-08-19T08:37:13;23.30;99.90
11304;DHT22;5707;49.588;12.148;2022-08-19T08:39:53;23.40;99.90
11304;DHT22;5707;49.588;12.148;2022-08-19T08:42:34;23.40;99.90
11304;DHT22;5707;49.588;12.148;2022-08-19T08:45:16;23.30;99.90
11304;DHT22;5707;49.588;12.148;2022-08-19T08:47:57;23.30;99.90
11304;DHT22;5707;49.588;12.148;2022-08-19T08:50:40;23.50;99.90
11304;DHT22;5707;49.588;12.148;2022-08-19T08:53:23;23.60;99.90
11304;DHT22;5707;49.588;12.148;2022-08-19T08:56:05;23.70;99.90
11304;DHT22;5707;49.588;12.148;2022-08-19T08:58:51;23.90;99.90
11304;DHT22;5707;49.588;12.148;2022-08-19T09:01:30;24.00;99.90
11304;DHT22;5707;49.588;12.148;2022-08-19T09:04:10;24.20;99.90
11304;DHT22;5707;49.588;12.148;2022-08-19T09:06:54;24.30;99.90
11304;DHT22;5707;49.588;12.148;2022-08-19T09:09:37;24.50;99.90
11304;DHT22;5707;49.588;12.148;2022-08-19T09:12:20;24.80;99.90
11304;DHT22;5707;49.588;12.148;2022-08-19T09:15:04;25.10;99.90
11304;DHT22;5707;49.588;12.148;2022-08-19T09:17:44;25.20;99.90
11304;DHT22;5707;49.588;12.148;2022-08-19T09:20:24;25.80;99.90
11304;DHT22;5707;49.588;12.148;2022-08-19T09:23:03;26.50;99.90
11304;DHT22;5707;49.588;12.148;2022-08-19T09:25:43;27.10;99.90
11304;DHT22;5707;49.588;12.148;2022-08-19T09:28:23;27.60;99.90
11304;DHT22;5707;49.588;12.148;2022-08-19T09:31:05;27.70;99.90
11304;DHT22;5707;49.588;12.148;2022-08-19T09:33:44;27.60;99.90
11304;DHT22;5707;49.588;12.148;2022-08-19T09:36:25;27.10;99.90
11304;DHT22;5707;49.588;12.148;2022-08-19T09:39:07;26.80;99.90
11304;DHT22;5707;49.588;12.148;2022-08-19T09:41:47;26.40;99.90
11304;DHT22;5707;49.588;12.148;2022-08-19T09:44:29;25.90;99.90
11304;DHT22;5707;49.588;12.148;2022-08-19T09:47:09;25.80;99.90
11304;DHT22;5707;49.588;12.148;2022-08-19T09:49:50;25.60;99.90
11304;DHT22;5707;49.588;12.148;2022-08-19T09:52:30;25.10;99.90
11304;DHT22;5707;49.588;12.148;2022-08-19T09:55:10;24.70;99.90
11304;DHT22;5707;49.588;12.148;2022-08-19T09:57:49;24.60;99.90
11304;DHT22;5707;49.588;12.148;2022-08-19T10:00:29;24.50;99.90
11304;DHT22;5707;49.588;12.148;2022-08-19T10:03:10;24.40;99.90
11304;DHT22;5707;49.588;12.148;2022-08-19T10:05:50;24.20;99.90
11304;DHT22;5707;49.588;12.148;2022-08-19T10:08:31;24.00;99.90
11304;DHT22;5707;49.588;12.148;2022-08-19T10:11:12;24.20;99.90
11304;DHT22;5707;49.588;12.148;2022-08-19T10:13:55;24.60;99.90
11304;DHT22;5707;49.588;12.148;2022-08-19T10:16:35;25.30;99.90
11304;DHT22;5707;49.588;12.148;2022-08-19T10:19:16;25.60;99.90
11304;DHT22;5707;49.588;12.148;2022-08-19T10:21:56;25.80;99.90
11304;DHT22;5707;49.588;12.148;2022-08-19T10:24:36;25.80;99.90
11304;DHT22;5707;49.588;12.148;2022-08-19T10:27:16;25.70;99.90
11304;DHT22;5707;49.588;12.148;2022-08-19T10:29:57;25.50;99.90
11304;DHT22;5707;49.588;12.148;2022-08-19T10:32:37;25.30;99.90
11304;DHT22;5707;49.588;12.148;2022-08-19T10:35:16;25.20;99.90
11304;DHT22;5707;49.588;12.148;2022-08-19T10:37:56;25.20;99.90
11304;DHT22;5707;49.588;12.148;2022-08-19T10:40:38;25.30;99.90
11304;DHT22;5707;49.588;12.148;2022-08-19T10:43:18;25.30;99.90
11304;DHT22;5707;49.588;12.148;2022-08-19T10:45:57;25.30;99.90
11304;DHT22;5707;49.588;12.148;2022-08-19T10:48:37;25.20;99.90
11304;DHT22;5707;49.588;12.148;2022-08-19T10:51:17;25.00;99.90
11304;DHT22;5707;49.588;12.148;2022-08-19T10:54:15;24.80;99.90
11304;DHT22;5707;49.588;12.148;2022-08-19T10:56:54;24.50;99.90
11304;DHT22;5707;49.588;12.148;2022-08-19T10:59:34;24.30;99.90
11304;DHT22;5707;49.588;12.148;2022-08-19T11:02:14;24.20;99.90
11304;DHT22;5707;49.588;12.148;2022-08-19T11:04:54;24.40;99.90
11304;DHT22;5707;49.588;12.148;2022-08-19T11:07:34;24.50;99.90
11304;DHT22;5707;49.588;12.148;2022-08-19T11:10:15;24.70;99.90
11304;DHT22;5707;49.588;12.148;2022-08-19T11:12:58;25.00;99.90
11304;DHT22;5707;49.588;12.148;2022-08-19T11:15:39;25.20;99.90
11304;DHT22;5707;49.588;12.148;2022-08-19T11:18:19;25.50;99.90
11304;DHT22;5707;49.588;12.148;2022-08-19T11:21:06;25.70;99.90
11304;DHT22;5707;49.588;12.148;2022-08-19T11:23:46;25.60;99.90
11304;DHT22;5707;49.588;12.148;2022-08-19T11:26:27;25.50;99.90
11304;DHT22;5707;49.588;12.148;2022-08-19T11:29:09;25.40;99.90
11304;DHT22;5707;49.588;12.148;2022-08-19T11:31:51;25.30;99.90
11304;DHT22;5707;49.588;12.148;2022-08-19T11:34:31;25.20;99.90
11304;DHT22;5707;49.588;12.148;2022-08-19T11:37:11;25.10;99.90
11304;DHT22;5707;49.588;12.148;2022-08-19T11:39:51;24.80;99.90
11304;DHT22;5707;49.588;12.148;2022-08-19T11:42:32;24.80;99.90
11304;DHT22;5707;49.588;12.148;2022-08-19T11:45:30;24.50;99.90
11304;DHT22;5707;49.588;12.148;2022-08-19T11:48:09;24.30;99.90
11304;DHT22;5707;49.588;12.148;2022-08-19T11:50:49;24.20;99.90
11304;DHT22;5707;49.588;12.148;2022-08-19T11:53:29;23.80;99.90
11304;DHT22;5707;49.588;12.148;2022-08-19T11:56:09;23.50;99.90
11304;DHT22;5707;49.588;12.148;2022-08-19T11:58:49;23.40;99.90
11304;DHT22;5707;49.588;12.148;2022-08-19T12:01:29;23.20;99.90
11304;DHT22;5707;49.588;12.148;2022-08-19T12:04:10;23.00;99.90
11304;DHT22;5707;49.588;12.148;2022-08-19T12:06:50;23.00;99.90
11304;DHT22;5707;49.588;12.148;2022-08-19T12:09:30;23.00;99.90
11304;DHT22;5707;49.588;12.148;2022-08-19T12:12:09;23.10;99.90
11304;DHT22;5707;49.588;12.148;2022-08-19T12:14:49;23.20;99.90
11304;DHT22;5707;49.588;12.148;2022-08-19T12:17:36;23.50;99.90
11304;DHT22;5707;49.588;12.148;2022-08-19T12:20:15;23.70;99.90
11304;DHT22;5707;49.588;12.148;2022-08-19T12:22:55;23.80;99.90
11304;DHT22;5707;49.588;12.148;2022-08-19T12:25:35;23.70;99.90
11304;DHT22;5707;49.588;12.148;2022-08-19T12:28:15;23.90;99.90
11304;DHT22;5707;49.588;12.148;2022-08-19T12:30:55;24.00;99.90
11304;DHT22;5707;49.588;12.148;2022-08-19T12:33:36;23.50;99.90
11304;DHT22;5707;49.588;12.148;2022-08-19T12:36:16;23.20;99.90
11304;DHT22;5707;49.588;12.148;2022-08-19T12:38:58;23.40;99.90
11304;DHT22;5707;49.588;12.148;2022-08-19T12:41:39;23.70;99.90
11304;DHT22;5707;49.588;12.148;2022-08-19T12:44:19;24.20;99.90
11304;DHT22;5707;49.588;12.148;2022-08-19T12:46:58;25.00;99.90
11304;DHT22;5707;49.588;12.148;2022-08-19T12:49:38;25.40;99.90
11304;DHT22;5707;49.588;12.148;2022-08-19T12:52:18;25.40;99.90
11304;DHT22;5707;49.588;12.148;2022-08-19T12:55:00;25.40;99.90
11304;DHT22;5707;49.588;12.148;2022-08-19T12:57:39;25.20;99.90
11304;DHT22;5707;49.588;12.148;2022-08-19T13:00:20;25.10;99.90
11304;DHT22;5707;49.588;12.148;2022-08-19T13:03:01;25.20;99.90
11304;DHT22;5707;49.588;12.148;2022-08-19T13:05:40;25.20;99.90
11304;DHT22;5707;49.588;12.148;2022-08-19T13:08:20;25.20;99.90
11304;DHT22;5707;49.588;12.148;2022-08-19T13:11:07;25.20;99.90
11304;DHT22;5707;49.588;12.148;2022-08-19T13:13:50;25.00;99.90
11304;DHT22;5707;49.588;12.148;2022-08-19T13:16:31;25.00;99.90
11304;DHT22;5707;49.588;12.148;2022-08-19T13:19:11;25.00;99.90
11304;DHT22;5707;49.588;12.148;2022-08-19T13:21:52;24.80;99.90
11304;DHT22;5707;49.588;12.148;2022-08-19T13:24:34;24.50;99.90
11304;DHT22;5707;49.588;12.148;2022-08-19T13:27:15;24.70;99.90
11304;DHT22;5707;49.588;12.148;2022-08-19T13:29:55;24.80;99.90
11304;DHT22;5707;49.588;12.148;2022-08-19T13:32:52;24.70;99.90
11304;DHT22;5707;49.588;12.148;2022-08-19T13:35:56;24.60;99.90
11304;DHT22;5707;49.588;12.148;2022-08-19T13:38:38;24.30;99.90
11304;DHT22;5707;49.588;12.148;2022-08-19T13:41:17;24.30;99.90
11304;DHT22;5707;49.588;12.148;2022-08-19T13:43:57;24.50;99.90
11304;DHT22;5707;49.588;12.148;2022-08-19T13:46:37;24.30;99.90
11304;DHT22;5707;49.588;12.148;2022-08-19T13:49:17;24.20;99.90
11304;DHT22;5707;49.588;12.148;2022-08-19T13:51:58;24.40;99.90
11304;DHT22;5707;49.588;12.148;2022-08-19T13:54:38;24.80;99.90
11304;DHT22;5707;49.588;12.148;2022-08-19T13:57:18;25.00;99.90
11304;DHT22;5707;49.588;12.148;2022-08-19T13:59:58;24.80;99.90
11304;DHT22;5707;49.588;12.148;2022-08-19T14:02:38;24.50;99.90
11304;DHT22;5707;49.588;12.148;2022-08-19T14:05:20;24.10;99.90
11304;DHT22;5707;49.588;12.148;2022-08-19T14:08:01;23.80;99.90
11304;DHT22;5707;49.588;12.148;2022-08-19T14:10:40;23.70;99.90
11304;DHT22;5707;49.588;12.148;2022-08-19T14:13:22;23.80;99.90
11304;DHT22;5707;49.588;12.148;2022-08-19T14:16:07;24.00;99.90
11304;DHT22;5707;49.588;12.148;2022-08-19T14:18:48;24.00;99.90
11304;DHT22;5707;49.588;12.148;2022-08-19T14:21:28;23.90;99.90
11304;DHT22;5707;49.588;12.148;2022-08-19T14:24:08;24.00;99.90
11304;DHT22;5707;49.588;12.148;2022-08-19T14:26:49;24.00;99.90
11304;DHT22;5707;49.588;12.148;2022-08-19T14:29:29;24.00;99.90
11304;DHT22;5707;49.588;12.148;2022-08-19T14:32:09;24.00;99.90
11304;DHT22;5707;49.588;12.148;2022-08-19T14:34:48;23.90;99.90
11304;DHT22;5707;49.588;12.148;2022-08-19T14:37:28;24.00;99.90
11304;DHT22;5707;49.588;12.148;2022-08-19T14:40:09;24.00;99.90
11304;DHT22;5707;49.588;12.148;2022-08-19T14:42:49;24.00;99.90
11304;DHT22;5707;49.588;12.148;2022-08-19T14:45:30;23.90;99.90
11304;DHT22;5707;49.588;12.148;2022-08-19T14:48:11;23.90;99.90
11304;DHT22;5707;49.588;12.148;2022-08-19T14:50:51;23.70;99.90
11304;DHT22;5707;49.588;12.148;2022-08-19T14:53:30;23.80;99.90
11304;DHT22;5707;49.588;12.148;2022-08-19T14:56:13;23.90;99.90
11304;DHT22;5707;49.588;12.148;2022-08-19T14:58:53;23.80;99.90
11304;DHT22;5707;49.588;12.148;2022-08-19T15:01:33;23.50;99.90
11304;DHT22;5707;49.588;12.148;2022-08-19T15:04:13;23.30;99.90
11304;DHT22;5707;49.588;12.148;2022-08-19T15:06:53;23.30;99.90
11304;DHT22;5707;49.588;12.148;2022-08-19T15:09:33;23.40;99.90
11304;DHT22;5707;49.588;12.148;2022-08-19T15:12:12;23.30;99.90
11304;DHT22;5707;49.588;12.148;2022-08-19T15:14:52;23.20;99.90
11304;DHT22;5707;49.588;12.148;2022-08-19T15:17:34;22.70;99.90
11304;DHT22;5707;49.588;12.148;2022-08-19T15:20:16;21.70;99.90
11304;DHT22;5707;49.588;12.148;2022-08-19T15:22:56;20.90;99.90
11304;DHT22;5707;49.588;12.148;2022-08-19T15:25:36;20.20;99.90
11304;DHT22;5707;49.588;12.148;2022-08-19T15:28:16;19.80;99.90
11304;DHT22;5707;49.588;12.148;2022-08-19T15:30:56;19.60;99.90
11304;DHT22;5707;49.588;12.148;2022-08-19T15:33:36;19.40;99.90
11304;DHT22;5707;49.588;12.148;2022-08-19T15:36:16;19.30;99.90
11304;DHT22;5707;49.588;12.148;2022-08-19T15:38:56;19.20;99.90
11304;DHT22;5707;49.588;12.148;2022-08-19T15:41:37;19.10;99.90
11304;DHT22;5707;49.588;12.148;2022-08-19T15:44:19;19.00;99.90
11304;DHT22;5707;49.588;12.148;2022-08-19T15:47:00;18.90;99.90
11304;DHT22;5707;49.588;12.148;2022-08-19T15:49:40;18.70;99.90
11304;DHT22;5707;49.588;12.148;2022-08-19T15:52:21;18.60;99.90
11304;DHT22;5707;49.588;12.148;2022-08-19T15:55:03;18.60;99.90
11304;DHT22;5707;49.588;12.148;2022-08-19T15:57:44;18.50;99.90
11304;DHT22;5707;49.588;12.148;2022-08-19T16:00:41;18.60;99.90
11304;DHT22;5707;49.588;12.148;2022-08-19T16:03:39;18.60;99.90
11304;DHT22;5707;49.588;12.148;2022-08-19T16:06:37;18.60;99.90
11304;DHT22;5707;49.588;12.148;2022-08-19T16:09:18;18.50;99.90
11304;DHT22;5707;49.588;12.148;2022-08-19T16:12:02;18.50;99.90
11304;DHT22;5707;49.588;12.148;2022-08-19T16:14:42;18.50;99.90
11304;DHT22;5707;49.588;12.148;2022-08-19T16:17:22;18.40;99.90
11304;DHT22;5707;49.588;12.148;2022-08-19T16:20:03;18.40;99.90
11304;DHT22;5707;49.588;12.148;2022-08-19T16:22:43;18.40;99.90
11304;DHT22;5707;49.588;12.148;2022-08-19T16:25:23;18.40;99.90
11304;DHT22;5707;49.588;12.148;2022-08-19T16:28:08;18.30;99.90
11304;DHT22;5707;49.588;12.148;2022-08-19T16:30:47;18.30;99.90
11304;DHT22;5707;49.588;12.148;2022-08-19T16:33:27;18.40;99.90
11304;DHT22;5707;49.588;12.148;2022-08-19T16:36:08;18.20;99.90
11304;DHT22;5707;49.588;12.148;2022-08-19T16:38:49;18.20;99.90
11304;DHT22;5707;49.588;12.148;2022-08-19T16:41:30;18.10;99.90
11304;DHT22;5707;49.588;12.148;2022-08-19T16:44:11;18.10;99.90
11304;DHT22;5707;49.588;12.148;2022-08-19T16:46:51;18.20;99.90
11304;DHT22;5707;49.588;12.148;2022-08-19T16:49:31;18.20;99.90
11304;DHT22;5707;49.588;12.148;2022-08-19T16:52:11;18.20;99.90
11304;DHT22;5707;49.588;12.148;2022-08-19T16:54:51;18.30;99.90
11304;DHT22;5707;49.588;12.148;2022-08-19T16:57:30;18.20;99.90